Ana Sayfa
METAR-TAF:

METAR-TAF

Havaalanları :

Spaa

Tomaszów Mazowiecki, Polonya

Enlem: 51-35-04N, Boylam: 020-05-52E, yükseklik: 174 m

METAR: eksik

Saat: 18:01 (16:01 UTC)

Tahmin

Rapor saat 14:00 UTC de 2 saat ve 1 dakika önce yapıldı.
Ayın 02'si saat 15 UTC'den ayın 02'si saat 24 UTC'ye kadar geçerli Tahmin
Rüzgar batı/güneybatıdan 8 kt
Görüş mesafesi 10 km veya daha fazla
4000 ft yükseklikte parçalı bulutlu

TAF: EPTM 021400Z 0215/0224 24008KT 9999 SCT040

4.000'den fazla havaalanı için hava durumu gözlemleri ve tahminleri (METAR ve TAF raporları).

Kullanılabilir istasyonlar harita üzerinde sarı ve kırmızı noktalarla gösterilir.

İstasyonun adını görmek için fareyi noktanın üzerinde gezdirin.

Sonrasında hava gözlem ve tahminlerini görmek için tıklayın.

Haritayı değiştirmek için: yaklaştırmak için siyah artı işaretli yeşil düğmeye ve uzaklaştırmak için de eksi işaretli düğmeye hızla tıklayın; bitişik haritalar için yeşil okları kullanın.


METAR-TAF: